Time;durP1;ratioP1;P1;durP2;ratioP2;P2;SDS_P1;SDS_P2;PMS_P1;PMS_P2;Temp;Humidity;BMP_temperature;BMP_pressure;BME280_temperature;BME280_humidity;BME280_pressure;Samples;Min_cycle;Max_cycle;Signal;HPM_P1;HPM_P2
2022/03/30 00:02:18;;;;;;;21.98;10.18;;;6.80;99.90;;;;;;5096333;28;20392;-61
2022/03/30 00:04:44;;;;;;;21.27;10.82;;;6.80;99.90;;;;;;5096164;28;20120;-58
2022/03/30 00:07:10;;;;;;;26.42;10.68;;;6.80;99.90;;;;;;5096234;28;20465;-59
2022/03/30 00:09:36;;;;;;;23.13;10.38;;;6.80;99.90;;;;;;5113681;28;20051;-57
2022/03/30 00:12:01;;;;;;;24.63;10.35;;;6.90;99.90;;;;;;5114400;28;20441;-59
2022/03/30 00:14:27;;;;;;;21.20;9.90;;;6.90;99.90;;;;;;5113747;28;20039;-57
2022/03/30 00:16:54;;;;;;;25.38;10.88;;;6.90;99.90;;;;;;5114091;28;20066;-59
2022/03/30 00:19:20;;;;;;;18.65;9.63;;;6.90;99.90;;;;;;5114188;28;20047;-62
2022/03/30 00:21:46;;;;;;;17.83;9.50;;;6.90;99.90;;;;;;5096105;28;20048;-57
2022/03/30 00:24:12;;;;;;;20.70;10.75;;;6.90;99.90;;;;;;5113990;28;20087;-59
2022/03/30 00:26:37;;;;;;;20.92;9.63;;;6.90;99.90;;;;;;5113729;28;20374;-57
2022/03/30 00:29:04;;;;;;;20.90;9.63;;;6.80;99.90;;;;;;5079337;28;20374;-58
2022/03/30 00:31:31;;;;;;;20.08;9.90;;;6.80;99.90;;;;;;5095315;28;20044;-58
2022/03/30 00:33:57;;;;;;;25.15;10.52;;;6.80;99.90;;;;;;5095817;28;20050;-58
2022/03/30 00:36:23;;;;;;;25.23;10.35;;;6.80;99.90;;;;;;5078896;28;20039;-61
2022/03/30 00:38:49;;;;;;;25.77;11.00;;;6.80;99.90;;;;;;5095861;28;20054;-58
2022/03/30 00:41:15;;;;;;;21.75;10.18;;;6.80;99.90;;;;;;5079043;28;20397;-59
2022/03/30 00:43:40;;;;;;;21.75;10.82;;;6.80;99.90;;;;;;5095158;28;20069;-59
2022/03/30 00:46:09;;;;;;;22.20;10.27;;;6.80;99.90;;;;;;5113798;28;20051;-58
2022/03/30 00:48:35;;;;;;;26.17;10.73;;;6.80;99.90;;;;;;5113088;28;20039;-61
2022/03/30 00:51:00;;;;;;;20.60;10.07;;;6.80;99.90;;;;;;5078778;28;20062;-58
2022/03/30 00:53:26;;;;;;;23.83;10.27;;;6.90;99.90;;;;;;5094401;28;20039;-62
2022/03/30 00:55:53;;;;;;;28.23;10.90;;;6.90;99.90;;;;;;5113200;28;20044;-59
2022/03/30 00:58:21;;;;;;;22.58;10.18;;;6.90;99.90;;;;;;5113628;28;20122;-56
2022/03/30 01:00:46;;;;;;;23.60;11.15;;;6.90;99.90;;;;;;5113087;28;20576;-56
2022/03/30 01:03:12;;;;;;;19.63;10.20;;;7.00;99.90;;;;;;5078158;28;20046;-58
2022/03/30 01:05:38;;;;;;;24.98;10.90;;;6.80;99.90;;;;;;5077933;28;20043;-57
2022/03/30 01:08:04;;;;;;;21.02;9.88;;;6.80;99.90;;;;;;5094977;28;20093;-59
2022/03/30 01:10:30;;;;;;;20.77;11.73;;;6.90;99.90;;;;;;5077903;28;20058;-61
2022/03/30 01:12:56;;;;;;;29.80;11.88;;;6.90;99.90;;;;;;5113168;28;20055;-59
2022/03/30 01:15:23;;;;;;;24.30;12.15;;;6.90;99.90;;;;;;5094664;28;20051;-59
2022/03/30 01:17:49;;;;;;;29.52;12.20;;;6.90;99.90;;;;;;5112721;28;20073;-57
2022/03/30 01:20:21;;;;;;;29.85;12.50;;;6.80;99.90;;;;;;5094887;28;20123;-57
2022/03/30 01:22:48;;;;;;;25.25;11.63;;;6.80;99.90;;;;;;5112616;28;20047;-59
2022/03/30 01:25:14;;;;;;;24.08;12.15;;;6.90;99.90;;;;;;5094707;28;20435;-59
2022/03/30 01:27:39;;;;;;;25.08;12.10;;;6.80;99.90;;;;;;5077284;28;20043;-58
2022/03/30 01:33:00;;;;;;;24.25;12.40;;;6.80;99.90;;;;;;5112856;28;20065;-59
2022/03/30 01:35:26;;;;;;;19.90;11.68;;;6.80;99.90;;;;;;5094548;28;20040;-56
2022/03/30 01:37:52;;;;;;;33.70;12.15;;;6.70;99.90;;;;;;5112309;28;20051;-58
2022/03/30 01:40:18;;;;;;;27.25;13.35;;;6.70;99.90;;;;;;5112757;28;20043;-58
2022/03/30 01:42:44;;;;;;;22.60;12.68;;;6.70;99.90;;;;;;5112169;28;20071;-56
2022/03/30 01:45:11;;;;;;;25.60;12.38;;;6.70;99.90;;;;;;5112630;28;20480;-57
2022/03/30 01:47:40;;;;;;;24.92;12.85;;;6.60;99.90;;;;;;5094321;28;20044;-56
2022/03/30 01:50:09;;;;;;;26.02;12.23;;;6.60;99.90;;;;;;5094936;28;20055;-58
2022/03/30 01:52:36;;;;;;;29.08;12.70;;;6.60;99.90;;;;;;5093817;28;20477;-61
2022/03/30 01:55:02;;;;;;;25.88;11.80;;;6.60;99.90;;;;;;5094402;28;20059;-58
2022/03/30 01:57:28;;;;;;;26.35;12.13;;;6.60;99.90;;;;;;5094313;28;20073;-58
2022/03/30 01:59:54;;;;;;;23.23;12.60;;;6.60;99.90;;;;;;5093957;28;20047;-56
2022/03/30 02:02:20;;;;;;;28.88;12.13;;;6.60;99.90;;;;;;5094283;28;20392;-56
2022/03/30 02:04:45;;;;;;;23.38;12.43;;;6.50;99.90;;;;;;5093440;28;20047;-59
2022/03/30 02:07:11;;;;;;;26.65;13.18;;;6.50;99.90;;;;;;5094203;28;20051;-59
2022/03/30 02:09:38;;;;;;;22.33;12.27;;;6.50;99.90;;;;;;5093817;28;20047;-61
2022/03/30 02:12:05;;;;;;;24.17;12.55;;;6.50;99.90;;;;;;5094102;28;20047;-58
2022/03/30 02:14:31;;;;;;;24.67;12.60;;;6.40;99.90;;;;;;5111984;28;20070;-57
2022/03/30 02:16:56;;;;;;;23.02;12.00;;;6.40;99.90;;;;;;5111844;28;20587;-59
2022/03/30 02:19:22;;;;;;;24.10;12.52;;;6.40;99.90;;;;;;5093825;28;20108;-59
2022/03/30 02:21:48;;;;;;;26.15;12.75;;;6.40;99.90;;;;;;5093321;28;20062;-60
2022/03/30 02:24:14;;;;;;;22.13;12.32;;;6.40;99.90;;;;;;5111995;28;20518;-59
2022/03/30 02:26:39;;;;;;;19.83;10.50;;;6.40;99.90;;;;;;5111359;28;20078;-61
2022/03/30 02:29:06;;;;;;;21.45;9.32;;;6.40;99.90;;;;;;5093615;28;20035;-58
2022/03/30 02:31:33;;;;;;;13.43;6.80;;;6.30;99.90;;;;;;5076791;28;20074;-59
2022/03/30 02:33:58;;;;;;;10.95;5.32;;;6.30;99.90;;;;;;5111274;28;20100;-61
2022/03/30 02:36:24;;;;;;;7.45;3.67;;;6.20;99.90;;;;;;5111664;28;20036;-57
2022/03/30 02:38:51;;;;;;;6.72;2.90;;;6.20;99.90;;;;;;5076270;28;20047;-59
2022/03/30 02:41:17;;;;;;;5.55;1.92;;;6.10;99.90;;;;;;5111296;28;20044;-58
2022/03/30 02:43:42;;;;;;;5.88;1.77;;;6.10;99.90;;;;;;5059458;28;20051;-58
2022/03/30 02:46:08;;;;;;;5.75;1.80;;;6.10;99.90;;;;;;5111392;28;20485;-59
2022/03/30 02:48:35;;;;;;;5.20;1.70;;;6.10;99.90;;;;;;5093453;28;20079;-56
2022/03/30 02:51:04;;;;;;;3.33;1.45;;;6.10;99.90;;;;;;5111220;28;20040;-57
2022/03/30 02:53:30;;;;;;;6.30;1.70;;;6.10;99.90;;;;;;5093577;28;20047;-55
2022/03/30 02:55:56;;;;;;;4.43;1.80;;;6.00;99.90;;;;;;5093137;28;20093;-57
2022/03/30 02:58:22;;;;;;;5.45;1.77;;;6.00;99.90;;;;;;5093003;28;20035;-59
2022/03/30 03:00:49;;;;;;;3.55;1.50;;;6.10;99.90;;;;;;5093256;28;20062;-59
2022/03/30 03:03:15;;;;;;;10.77;1.92;;;6.00;99.90;;;;;;5111553;28;20044;-56
2022/03/30 03:05:42;;;;;;;3.03;1.55;;;6.00;99.90;;;;;;5111581;28;20411;-57
2022/03/30 03:08:10;;;;;;;3.42;1.40;;;6.10;99.90;;;;;;5110994;28;20054;-57
2022/03/30 03:10:38;;;;;;;3.40;1.30;;;6.00;99.90;;;;;;5093258;28;20083;-57
2022/03/30 03:13:04;;;;;;;2.15;1.20;;;6.00;99.90;;;;;;5111069;28;20615;-58
2022/03/30 03:15:35;;;;;;;2.58;1.25;;;6.00;99.90;;;;;;5076279;28;20052;-58
2022/03/30 03:18:01;;;;;;;1.60;0.88;;;5.90;99.90;;;;;;5115025;28;20093;-58
2022/03/30 03:20:28;;;;;;;1.10;1.00;;;5.90;99.90;;;;;;5097295;28;20054;-56
2022/03/30 03:22:54;;;;;;;1.25;0.82;;;5.90;99.90;;;;;;5080138;28;20477;-57
2022/03/30 03:25:21;;;;;;;2.03;0.95;;;5.80;99.90;;;;;;5097197;28;20382;-58
2022/03/30 03:27:47;;;;;;;0.90;0.85;;;5.80;99.90;;;;;;5114845;28;20451;-60
2022/03/30 03:30:14;;;;;;;3.30;0.95;;;5.80;99.90;;;;;;5096994;28;20122;-56
2022/03/30 03:32:41;;;;;;;1.75;0.80;;;5.80;99.90;;;;;;5080436;28;20055;-59
2022/03/30 03:35:09;;;;;;;2.88;1.10;;;5.80;99.90;;;;;;5096757;28;20617;-57
2022/03/30 03:37:40;;;;;;;2.50;1.10;;;5.80;99.90;;;;;;5115388;28;20609;-57
2022/03/30 03:40:07;;;;;;;2.90;1.00;;;5.80;99.90;;;;;;5114726;28;20093;-59
2022/03/30 03:42:33;;;;;;;1.40;0.90;;;5.90;99.90;;;;;;5096624;28;20552;-58
2022/03/30 03:44:59;;;;;;;1.88;1.00;;;5.90;99.90;;;;;;5096483;28;20066;-60
2022/03/30 03:47:25;;;;;;;0.98;0.82;;;5.90;99.90;;;;;;5114961;28;20177;-59
2022/03/30 03:49:51;;;;;;;1.77;1.08;;;5.80;99.90;;;;;;5114205;28;20047;-59
2022/03/30 03:52:17;;;;;;;2.55;0.90;;;5.80;99.90;;;;;;5079647;28;20036;-59
2022/03/30 03:54:42;;;;;;;3.05;0.95;;;5.80;99.90;;;;;;5114890;28;20054;-56
2022/03/30 03:57:08;;;;;;;2.30;0.90;;;5.80;99.90;;;;;;5113697;28;20131;-57
2022/03/30 03:59:35;;;;;;;2.60;1.42;;;5.70;99.90;;;;;;5114456;28;20465;-61
2022/03/30 04:02:02;;;;;;;3.63;0.90;;;5.70;99.90;;;;;;5114139;28;20044;-59
2022/03/30 04:04:28;;;;;;;1.02;0.90;;;5.60;99.90;;;;;;5096424;28;20047;-57
2022/03/30 04:06:54;;;;;;;1.75;0.90;;;5.60;99.90;;;;;;5114128;28;20127;-57
2022/03/30 04:09:20;;;;;;;1.08;0.80;;;5.60;99.90;;;;;;5079596;28;20477;-59
2022/03/30 04:11:45;;;;;;;0.70;0.57;;;5.60;99.90;;;;;;5114259;28;20075;-57
2022/03/30 04:14:11;;;;;;;3.20;1.05;;;5.50;99.90;;;;;;5095970;28;20624;-56
2022/03/30 04:16:37;;;;;;;2.03;0.90;;;5.50;99.90;;;;;;5114547;28;20102;-59
2022/03/30 04:19:02;;;;;;;1.02;0.88;;;5.50;99.90;;;;;;5095459;28;20473;-61
2022/03/30 04:21:28;;;;;;;0.75;0.75;;;5.50;99.90;;;;;;5095931;28;20047;-56
2022/03/30 04:23:54;;;;;;;2.70;1.08;;;5.40;99.90;;;;;;5095442;28;20042;-61
2022/03/30 04:26:19;;;;;;;4.45;1.15;;;5.40;99.90;;;;;;5096175;28;20087;-58
2022/03/30 04:28:45;;;;;;;6.80;1.20;;;5.40;99.90;;;;;;5113872;28;20035;-58
2022/03/30 04:31:12;;;;;;;1.67;1.10;;;5.40;99.90;;;;;;5095220;28;20176;-59
2022/03/30 04:33:38;;;;;;;1.73;1.20;;;5.30;99.90;;;;;;5113957;28;20066;-56
2022/03/30 04:36:05;;;;;;;3.75;1.40;;;5.30;99.90;;;;;;5095530;28;20127;-55
2022/03/30 04:38:32;;;;;;;2.97;1.30;;;5.30;99.90;;;;;;5078995;28;20484;-55
2022/03/30 04:40:58;;;;;;;4.93;1.70;;;5.20;99.90;;;;;;5095013;28;20544;-56
2022/03/30 04:43:24;;;;;;;3.50;1.45;;;5.20;99.90;;;;;;5095788;28;20127;-54
2022/03/30 04:45:49;;;;;;;2.50;1.50;;;5.30;99.90;;;;;;5113420;28;20101;-55
2022/03/30 04:48:15;;;;;;;2.47;1.60;;;5.20;99.90;;;;;;5095507;28;20092;-58
2022/03/30 04:50:42;;;;;;;2.83;1.75;;;5.20;99.90;;;;;;5095434;28;20532;-58
2022/03/30 04:53:07;;;;;;;1.73;1.23;;;5.20;99.90;;;;;;5095103;28;20043;-58
2022/03/30 04:55:33;;;;;;;3.00;1.70;;;5.10;99.90;;;;;;5113774;28;20043;-57
2022/03/30 04:57:59;;;;;;;3.55;1.80;;;5.10;99.90;;;;;;5095227;28;20450;-56
2022/03/30 05:00:24;;;;;;;3.03;1.45;;;5.10;99.90;;;;;;5113766;28;20052;-58
2022/03/30 05:02:50;;;;;;;4.50;1.45;;;5.10;99.90;;;;;;5095511;28;20131;-56
2022/03/30 05:05:16;;;;;;;3.45;1.80;;;5.10;99.90;;;;;;5113262;28;20079;-56
2022/03/30 05:07:42;;;;;;;1.90;1.42;;;5.10;99.90;;;;;;5113516;28;20073;-58
2022/03/30 05:10:14;;;;;;;2.47;1.67;;;5.00;99.90;;;;;;5112692;28;20047;-54
2022/03/30 05:12:40;;;;;;;2.35;1.63;;;5.00;99.90;;;;;;5078774;28;20051;-58
2022/03/30 05:15:07;;;;;;;2.55;1.40;;;5.20;99.90;;;;;;5112851;28;20052;-59
2022/03/30 05:17:33;;;;;;;2.72;1.58;;;5.00;99.90;;;;;;5113306;28;20082;-59
2022/03/30 05:19:59;;;;;;;3.42;1.40;;;5.00;99.90;;;;;;5094823;28;20087;-59
2022/03/30 05:22:25;;;;;;;2.88;1.80;;;5.00;99.90;;;;;;5095187;28;20271;-59
2022/03/30 05:24:51;;;;;;;7.10;2.33;;;5.00;99.90;;;;;;5094862;28;20091;-56
2022/03/30 05:27:16;;;;;;;5.03;2.30;;;5.00;99.90;;;;;;5077806;28;20441;-59
2022/03/30 05:29:42;;;;;;;6.10;1.88;;;5.00;99.90;;;;;;5113383;28;20051;-56
2022/03/30 05:32:08;;;;;;;5.13;1.83;;;4.90;99.90;;;;;;5113005;28;20039;-56
2022/03/30 05:34:34;;;;;;;4.63;1.80;;;4.90;99.90;;;;;;5113069;28;20424;-56
2022/03/30 05:36:59;;;;;;;5.32;1.95;;;4.90;99.90;;;;;;5095334;28;20051;-56
2022/03/30 05:39:25;;;;;;;6.38;2.13;;;5.00;99.90;;;;;;5112164;28;20050;-59
2022/03/30 05:41:55;;;;;;;3.10;1.70;;;4.90;99.90;;;;;;5112762;28;20520;-57
2022/03/30 05:44:20;;;;;;;4.53;1.70;;;5.00;99.90;;;;;;5094136;28;20481;-58
2022/03/30 05:46:46;;;;;;;3.55;1.70;;;5.00;99.90;;;;;;5112747;28;20062;-56
2022/03/30 05:49:12;;;;;;;3.15;1.60;;;5.00;99.90;;;;;;5112331;28;20536;-58
2022/03/30 05:51:37;;;;;;;3.55;1.60;;;5.00;99.90;;;;;;5112829;28;20043;-56
2022/03/30 05:54:04;;;;;;;3.85;1.90;;;5.00;99.90;;;;;;5112672;28;20046;-61
2022/03/30 05:59:15;;;;;;;4.63;2.00;;;5.00;99.90;;;;;;5112373;28;20043;-56
2022/03/30 06:01:41;;;;;;;4.03;2.08;;;5.10;99.90;;;;;;5112378;28;20139;-56
2022/03/30 06:04:07;;;;;;;2.70;1.95;;;5.10;99.90;;;;;;5077254;28;20043;-59
2022/03/30 06:06:34;;;;;;;3.75;1.73;;;5.10;99.90;;;;;;5112149;28;20468;-59
2022/03/30 06:09:02;;;;;;;2.88;1.70;;;5.10;99.90;;;;;;5112345;28;20066;-56
2022/03/30 06:11:28;;;;;;;5.18;1.70;;;5.10;99.90;;;;;;5094139;28;20047;-57
2022/03/30 06:13:54;;;;;;;6.25;2.50;;;5.20;99.90;;;;;;5112504;28;20084;-56
2022/03/30 06:16:19;;;;;;;4.15;2.10;;;5.20;99.90;;;;;;5111784;28;20063;-60
2022/03/30 06:18:45;;;;;;;5.57;2.17;;;5.30;99.90;;;;;;5112398;28;20048;-57
2022/03/30 06:21:11;;;;;;;4.60;2.03;;;5.30;99.90;;;;;;5077227;28;20147;-58
2022/03/30 06:23:37;;;;;;;7.50;2.13;;;5.30;99.90;;;;;;5077198;28;20497;-58
2022/03/30 06:26:05;;;;;;;3.78;2.20;;;5.30;99.90;;;;;;5112495;28;20086;-59
2022/03/30 06:28:30;;;;;;;6.10;2.30;;;5.30;99.90;;;;;;5093772;28;20042;-58
2022/03/30 06:30:56;;;;;;;5.03;2.38;;;5.40;99.90;;;;;;5094559;28;20047;-58
2022/03/30 06:33:22;;;;;;;6.15;2.28;;;5.40;99.90;;;;;;5111694;28;20388;-56
2022/03/30 06:35:48;;;;;;;9.75;2.33;;;5.40;99.90;;;;;;5094026;28;20073;-58
2022/03/30 06:38:14;;;;;;;3.72;1.85;;;5.40;99.90;;;;;;5111809;28;20127;-59
2022/03/30 06:40:40;;;;;;;4.13;2.10;;;5.50;99.90;;;;;;5094105;28;20048;-59
2022/03/30 06:43:05;;;;;;;5.40;2.42;;;5.50;99.90;;;;;;5111914;28;20054;-58
2022/03/30 06:45:31;;;;;;;7.68;2.17;;;5.60;99.90;;;;;;5076472;28;20055;-57
2022/03/30 06:47:57;;;;;;;6.03;1.85;;;5.70;99.90;;;;;;5077128;28;20568;-59
2022/03/30 06:50:23;;;;;;;4.18;1.70;;;5.70;99.90;;;;;;5111827;28;20044;-56
2022/03/30 06:52:49;;;;;;;6.22;2.00;;;5.80;99.90;;;;;;5116025;28;20044;-58
2022/03/30 06:55:15;;;;;;;8.50;2.10;;;5.90;99.90;;;;;;5115882;28;20434;-56
2022/03/30 06:57:42;;;;;;;4.43;1.70;;;6.00;99.90;;;;;;5098009;28;20052;-55
2022/03/30 07:00:12;;;;;;;3.92;1.77;;;6.10;99.90;;;;;;5116213;28;20048;-56
2022/03/30 07:02:38;;;;;;;4.18;1.70;;;6.20;99.90;;;;;;5115796;28;20089;-57
2022/03/30 07:05:04;;;;;;;4.65;1.73;;;6.20;99.90;;;;;;5116090;28;20393;-58
2022/03/30 07:10:17;;;;;;;7.35;1.90;;;6.50;99.90;;;;;;5115686;28;20051;-60
2022/03/30 07:12:50;;;;;;;4.30;1.67;;;6.70;99.90;;;;;;5081382;28;20044;-60
2022/03/30 07:15:18;;;;;;;6.45;1.80;;;6.80;99.90;;;;;;5097051;28;20109;-58
2022/03/30 07:17:52;;;;;;;7.15;2.35;;;6.90;99.90;;;;;;5097428;28;20075;-60
2022/03/30 07:20:19;;;;;;;5.95;2.25;;;7.00;99.90;;;;;;5080619;28;20063;-60
2022/03/30 07:22:47;;;;;;;4.43;1.58;;;7.00;99.90;;;;;;5064155;28;20051;-58
2022/03/30 07:25:14;;;;;;;5.03;1.70;;;7.10;99.90;;;;;;5115726;28;20043;-60
2022/03/30 07:27:45;;;;;;;6.90;1.58;;;7.20;99.90;;;;;;5096729;28;20126;-60
2022/03/30 07:30:14;;;;;;;6.75;1.70;;;7.30;99.90;;;;;;5115408;28;20112;-59
2022/03/30 07:32:43;;;;;;;6.32;1.88;;;7.30;99.90;;;;;;5097147;28;20055;-60
2022/03/30 07:35:11;;;;;;;7.60;1.65;;;7.30;99.90;;;;;;5094134;28;20048;-59
2022/03/30 07:37:39;;;;;;;6.38;1.65;;;7.40;99.90;;;;;;5114378;28;20198;-59
2022/03/30 07:40:07;;;;;;;4.40;1.48;;;7.60;99.90;;;;;;5114000;28;20126;-59
2022/03/30 07:42:33;;;;;;;5.38;1.70;;;7.90;99.90;;;;;;5095681;28;20043;-60
2022/03/30 07:44:59;;;;;;;6.82;1.55;;;8.00;99.90;;;;;;5095997;28;20066;-60
2022/03/30 07:47:29;;;;;;;4.40;1.45;;;7.90;99.90;;;;;;5095199;28;20496;-59
2022/03/30 07:49:55;;;;;;;4.22;1.50;;;7.80;99.90;;;;;;5113794;28;20047;-60
2022/03/30 07:52:21;;;;;;;4.07;1.65;;;7.80;99.90;;;;;;5095698;28;20522;-61
2022/03/30 07:54:48;;;;;;;3.35;1.33;;;7.70;99.90;;;;;;5096330;28;20092;-59
2022/03/30 07:57:15;;;;;;;4.82;1.50;;;7.60;99.90;;;;;;5113859;28;20046;-61
2022/03/30 07:59:41;;;;;;;3.97;1.70;;;7.50;99.90;;;;;;5094830;28;20100;-60
2022/03/30 08:02:10;;;;;;;6.93;1.45;;;7.40;99.90;;;;;;5112563;28;20059;-60
2022/03/30 08:04:36;;;;;;;4.25;1.30;;;7.20;99.90;;;;;;5077937;28;20050;-59
2022/03/30 08:07:02;;;;;;;2.67;1.10;;;6.80;99.90;;;;;;5095367;28;20039;-58
2022/03/30 08:09:27;;;;;;;6.60;1.67;;;6.70;99.90;;;;;;5095435;28;20048;-60
2022/03/30 08:11:53;;;;;;;5.47;1.55;;;6.50;99.90;;;;;;5078352;28;20366;-61
2022/03/30 08:14:19;;;;;;;3.25;1.10;;;6.30;99.90;;;;;;5095052;28;20089;-58
2022/03/30 08:16:45;;;;;;;2.85;1.00;;;6.20;99.90;;;;;;5112859;28;20039;-59
2022/03/30 08:19:11;;;;;;;3.28;1.20;;;6.10;99.90;;;;;;5095134;28;20051;-58
2022/03/30 08:24:22;;;;;;;5.68;1.80;;;6.10;99.90;;;;;;5095147;28;20480;-58
2022/03/30 08:26:48;;;;;;;3.30;1.63;;;6.20;99.90;;;;;;5112892;28;20059;-56
2022/03/30 08:29:16;;;;;;;4.75;1.65;;;6.40;99.90;;;;;;5095136;28;20044;-59
2022/03/30 08:31:42;;;;;;;3.13;1.33;;;6.50;99.90;;;;;;5094163;28;20051;-58
2022/03/30 08:34:09;;;;;;;3.47;1.30;;;6.60;99.90;;;;;;5095313;28;20052;-58
2022/03/30 08:36:34;;;;;;;5.78;1.30;;;6.60;99.90;;;;;;5076910;28;20043;-58
2022/03/30 08:39:10;;;;;;;5.85;1.50;;;6.70;99.90;;;;;;5094813;28;20077;-57
2022/03/30 08:41:40;;;;;;;4.35;1.25;;;6.70;99.90;;;;;;5112302;28;20481;-59
2022/03/30 08:44:06;;;;;;;6.47;1.52;;;6.80;99.90;;;;;;5094834;28;20043;-55
2022/03/30 08:46:33;;;;;;;5.10;1.42;;;7.00;99.90;;;;;;5094165;28;20043;-56
2022/03/30 08:48:59;;;;;;;3.85;1.40;;;7.40;99.90;;;;;;5112419;28;20043;-58
2022/03/30 08:51:25;;;;;;;2.92;1.13;;;7.60;99.90;;;;;;5077473;28;20047;-58
2022/03/30 08:53:54;;;;;;;3.63;1.00;;;7.90;99.90;;;;;;5110684;28;20450;-56
2022/03/30 08:56:20;;;;;;;5.45;1.40;;;8.20;99.90;;;;;;5113161;28;20088;-59
2022/03/30 08:58:46;;;;;;;6.28;1.50;;;8.20;99.90;;;;;;5094306;28;20417;-57
2022/03/30 09:01:12;;;;;;;5.07;1.10;;;8.30;99.90;;;;;;5095177;28;20048;-59
2022/03/30 09:04:04;;;;;;;2.78;1.20;;;8.30;99.90;;;;;;5077347;28;20096;-59
2022/03/30 09:06:41;;;;;;;6.50;1.02;;;8.30;99.90;;;;;;5112463;28;20039;-61
2022/03/30 09:09:08;;;;;;;4.38;1.10;;;8.50;99.90;;;;;;5094852;28;20093;-59
2022/03/30 09:11:55;;;;;;;2.55;1.00;;;8.60;99.90;;;;;;5094698;28;20043;-59
2022/03/30 09:14:27;;;;;;;4.65;1.10;;;8.80;99.90;;;;;;5111482;28;20051;-60
2022/03/30 09:16:56;;;;;;;4.80;1.23;;;8.70;99.90;;;;;;5112544;28;20063;-59
2022/03/30 09:19:23;;;;;;;3.85;1.20;;;8.90;99.90;;;;;;5095124;28;20048;-57
2022/03/30 09:21:57;;;;;;;7.43;1.23;;;9.20;99.90;;;;;;5094151;28;20473;-57
2022/03/30 09:24:25;;;;;;;2.72;1.00;;;9.30;99.90;;;;;;5094899;28;20519;-58
2022/03/30 09:26:52;;;;;;;3.45;1.13;;;9.30;99.90;;;;;;5112522;28;20058;-57
2022/03/30 09:29:22;;;;;;;5.88;1.40;;;9.10;99.90;;;;;;5113143;28;20100;-59
2022/03/30 09:31:50;;;;;;;2.63;1.05;;;8.80;99.90;;;;;;5077916;28;20055;-59
2022/03/30 09:34:16;;;;;;;5.13;1.30;;;8.60;99.90;;;;;;5113059;28;20112;-56
2022/03/30 09:36:44;;;;;;;5.13;1.40;;;8.30;99.90;;;;;;5077256;28;20051;-55
2022/03/30 09:39:32;;;;;;;2.58;1.05;;;8.10;99.90;;;;;;5112832;28;20043;-60
2022/03/30 09:42:00;;;;;;;3.97;1.20;;;8.00;99.90;;;;;;5094675;28;20047;-60
2022/03/30 09:44:28;;;;;;;9.23;1.40;;;7.90;99.90;;;;;;5094829;28;20051;-58
2022/03/30 09:47:03;;;;;;;3.35;1.00;;;8.00;99.90;;;;;;5112172;28;20050;-55
2022/03/30 09:49:36;;;;;;;2.90;0.90;;;8.00;99.90;;;;;;5094922;28;20131;-56
2022/03/30 09:52:25;;;;;;;5.35;1.30;;;8.00;99.90;;;;;;5072964;28;20126;-58
2022/03/30 09:54:55;;;;;;;2.33;1.00;;;8.10;99.90;;;;;;5092552;28;20520;-55
2022/03/30 09:57:22;;;;;;;4.97;1.70;;;8.10;99.90;;;;;;5111551;28;20056;-55
2022/03/30 10:00:02;;;;;;;7.82;1.55;;;7.90;99.90;;;;;;5111518;28;20055;-61
2022/03/30 10:02:31;;;;;;;3.75;1.48;;;8.00;99.90;;;;;;5093952;28;20054;-58
2022/03/30 10:04:59;;;;;;;5.03;1.58;;;7.90;99.90;;;;;;5110292;28;20122;-56
2022/03/30 10:07:27;;;;;;;3.10;1.45;;;7.90;99.90;;;;;;5075684;28;20550;-56
2022/03/30 10:09:55;;;;;;;3.72;1.50;;;7.80;99.90;;;;;;5092454;28;20039;-59
2022/03/30 10:12:21;;;;;;;4.78;1.80;;;7.70;99.90;;;;;;5075569;28;20550;-59
2022/03/30 10:14:48;;;;;;;5.18;1.58;;;7.80;99.90;;;;;;5092659;28;20043;-56
2022/03/30 10:17:15;;;;;;;4.43;1.60;;;7.90;99.90;;;;;;5092798;28;20047;-58
2022/03/30 10:19:46;;;;;;;7.00;1.67;;;7.90;99.90;;;;;;5075939;28;20077;-60
2022/03/30 10:22:46;;;;;;;6.75;1.77;;;7.90;99.90;;;;;;5092448;28;20058;-55
2022/03/30 10:25:23;;;;;;;6.28;1.65;;;7.90;99.90;;;;;;5110340;28;20047;-59
2022/03/30 10:28:43;;;;;;;2.60;1.33;;;7.90;99.90;;;;;;5110692;28;20040;-59
2022/03/30 10:31:10;;;;;;;6.13;1.20;;;7.90;99.90;;;;;;5076148;28;20507;-54
2022/03/30 10:33:44;;;;;;;4.28;1.48;;;7.70;99.90;;;;;;5111282;28;20096;-54
2022/03/30 10:36:26;;;;;;;6.50;1.67;;;7.70;99.90;;;;;;5110881;28;20131;-56
2022/03/30 10:39:15;;;;;;;5.15;1.48;;;7.50;99.90;;;;;;5110542;28;20048;-50
2022/03/30 10:41:58;;;;;;;8.10;1.92;;;7.60;99.90;;;;;;5094047;28;20043;-58
2022/03/30 10:44:42;;;;;;;5.60;1.70;;;7.70;99.90;;;;;;5093006;28;20119;-53
2022/03/30 10:47:17;;;;;;;4.60;1.38;;;7.80;99.90;;;;;;5092983;28;20082;-60
2022/03/30 10:49:55;;;;;;;3.55;1.45;;;7.90;99.90;;;;;;5073657;28;20193;-58
2022/03/30 10:52:40;;;;;;;3.47;1.35;;;7.90;99.90;;;;;;5110019;28;20055;-54
2022/03/30 10:55:12;;;;;;;2.63;1.20;;;7.80;99.90;;;;;;5091945;28;20052;-53
2022/03/30 10:57:49;;;;;;;2.45;0.98;;;7.70;99.90;;;;;;5111307;28;20048;-51
2022/03/30 11:00:29;;;;;;;5.60;1.23;;;7.80;99.90;;;;;;5110922;28;20070;-56
2022/03/30 11:03:14;;;;;;;3.67;1.13;;;7.80;99.90;;;;;;5092243;28;20051;-57
2022/03/30 11:05:44;;;;;;;4.85;1.13;;;7.80;99.90;;;;;;5093788;28;20054;-57
2022/03/30 11:08:51;;;;;;;2.80;1.20;;;7.80;99.90;;;;;;5093246;28;20451;-57
2022/03/30 11:11:28;;;;;;;5.40;1.30;;;7.90;99.90;;;;;;5008602;28;20139;-54
2022/03/30 11:14:31;;;;;;;3.13;1.00;;;8.00;99.90;;;;;;4991875;28;20455;-54
2022/03/30 11:17:05;;;;;;;2.95;1.13;;;8.10;99.90;;;;;;5050965;28;20056;-54
2022/03/30 11:19:46;;;;;;;1.17;0.98;;;8.30;99.90;;;;;;5091266;28;20056;-55
2022/03/30 11:22:28;;;;;;;5.45;1.15;;;8.50;99.90;;;;;;5089745;28;20083;-58
2022/03/30 11:25:06;;;;;;;4.38;1.35;;;8.70;99.90;;;;;;5089246;28;20044;-57
2022/03/30 11:27:33;;;;;;;5.45;1.52;;;8.70;99.90;;;;;;5088136;28;20123;-57
2022/03/30 11:30:04;;;;;;;2.30;1.20;;;8.60;99.90;;;;;;5089190;28;20048;-55
2022/03/30 11:32:34;;;;;;;5.93;1.23;;;8.70;99.90;;;;;;5089911;28;20486;-57
2022/03/30 11:35:10;;;;;;;2.42;1.10;;;8.80;99.90;;;;;;5090458;28;20042;-56
2022/03/30 11:37:47;;;;;;;5.53;1.27;;;8.70;99.90;;;;;;5092785;28;20056;-54
2022/03/30 11:40:21;;;;;;;3.30;1.15;;;8.60;99.90;;;;;;5094463;28;20048;-53
2022/03/30 11:42:52;;;;;;;4.03;1.08;;;8.80;99.90;;;;;;5094585;28;20048;-55
2022/03/30 11:45:24;;;;;;;3.05;1.35;;;8.90;99.90;;;;;;5094724;28;20549;-56
2022/03/30 11:47:52;;;;;;;8.23;1.42;;;9.00;99.90;;;;;;5093074;28;20051;-59
2022/03/30 11:50:32;;;;;;;3.53;1.20;;;9.00;99.90;;;;;;5076779;28;20052;-57
2022/03/30 11:53:04;;;;;;;6.00;1.50;;;8.90;99.90;;;;;;5094158;28;20401;-56
2022/03/30 11:55:32;;;;;;;6.70;1.92;;;8.90;99.90;;;;;;5094123;28;20079;-56
2022/03/30 11:58:00;;;;;;;5.90;1.50;;;8.90;99.90;;;;;;5092594;28;20048;-62
2022/03/30 12:00:28;;;;;;;5.82;1.38;;;9.00;99.90;;;;;;5094127;28;20090;-57
2022/03/30 12:02:58;;;;;;;4.72;1.13;;;9.00;99.90;;;;;;5093826;28;20048;-61
2022/03/30 12:05:24;;;;;;;6.00;1.38;;;9.10;99.90;;;;;;5076119;28;20048;-57
2022/03/30 12:07:55;;;;;;;3.90;1.10;;;9.20;99.90;;;;;;5093068;28;20048;-59
2022/03/30 12:10:28;;;;;;;5.45;1.20;;;9.00;99.50;;;;;;5094343;28;20048;-57
2022/03/30 12:12:54;;;;;;;9.52;1.58;;;8.90;99.90;;;;;;5093919;28;20400;-61
2022/03/30 12:15:20;;;;;;;6.18;1.50;;;8.80;99.90;;;;;;5092941;28;20044;-58
2022/03/30 12:17:59;;;;;;;4.95;1.17;;;8.80;99.90;;;;;;5114580;28;20070;-54
2022/03/30 12:20:30;;;;;;;7.95;1.65;;;8.80;99.70;;;;;;5079575;28;20132;-55
2022/03/30 12:23:00;;;;;;;4.30;1.70;;;8.70;99.90;;;;;;5095981;28;20044;-58
2022/03/30 12:25:29;;;;;;;4.55;1.52;;;8.80;99.90;;;;;;5079444;28;20485;-56
2022/03/30 12:27:55;;;;;;;5.13;1.55;;;8.80;99.90;;;;;;5113755;28;20109;-61
2022/03/30 12:30:23;;;;;;;3.83;1.35;;;8.90;99.90;;;;;;5114378;28;20059;-57
2022/03/30 12:32:49;;;;;;;5.35;1.42;;;8.80;99.90;;;;;;5113972;28;20101;-56
2022/03/30 12:35:17;;;;;;;3.40;1.40;;;8.80;99.90;;;;;;5095209;28;20615;-55
2022/03/30 12:37:46;;;;;;;3.45;1.30;;;8.80;99.90;;;;;;5113899;28;20043;-57
2022/03/30 12:40:13;;;;;;;6.78;1.80;;;8.60;99.90;;;;;;5095746;28;20074;-57
2022/03/30 12:42:40;;;;;;;3.42;0.95;;;8.50;99.90;;;;;;5095738;28;20048;-55
2022/03/30 12:45:11;;;;;;;6.20;1.40;;;8.50;99.90;;;;;;5113654;28;20088;-55
2022/03/30 12:47:45;;;;;;;5.78;1.50;;;8.50;99.90;;;;;;5113966;28;20225;-53
2022/03/30 12:50:19;;;;;;;4.60;1.38;;;8.50;99.90;;;;;;5113312;28;20524;-55
2022/03/30 12:52:51;;;;;;;5.00;1.50;;;8.70;99.90;;;;;;5095723;28;20050;-51
2022/03/30 12:55:34;;;;;;;2.85;1.50;;;8.80;99.90;;;;;;5113428;28;20126;-57
2022/03/30 12:58:07;;;;;;;4.13;1.40;;;8.80;99.90;;;;;;5113709;28;20130;-60
2022/03/30 13:00:41;;;;;;;3.22;1.33;;;8.80;99.20;;;;;;5113800;28;20112;-58
2022/03/30 13:03:11;;;;;;;4.38;1.30;;;8.80;99.30;;;;;;5113313;28;20046;-59
2022/03/30 13:05:40;;;;;;;4.65;1.25;;;8.80;98.90;;;;;;5095455;28;20051;-58
2022/03/30 13:08:24;;;;;;;3.35;1.25;;;9.00;98.20;;;;;;5113345;28;20127;-56
2022/03/30 13:11:02;;;;;;;2.73;1.10;;;9.20;98.70;;;;;;5095485;28;20097;-56
2022/03/30 13:13:33;;;;;;;4.35;1.17;;;9.20;99.10;;;;;;5113167;28;20052;-57